Bitte die für das Benutzerkonto hinterlegte E-Mail-Adresse eingeben. Der Benutzername wird dann an diese E-Mail-Adresse geschickt.

WebCam

  
Kamera Halle
Kamera Vorfeld

GPS Triangle WM Sports Class

AeroClub Göppingen-Salach e.V.
Ausrichter der Modellflug
GPS Triangle-WM 2020

Wetter EDDS

METAR

EDDS 191350Z 24009KT 200V270 9999 FEW005 SCT020CB 05/02 Q1023 NOSIG =
EDDS 191100Z 1912/2012 25015G30KT 9999 SCT020 PROB30 TEMPO 1912/1914 4000 SHRAGS BKN020CB BECMG 1915/1918 22006KT


TAF

EDDS 191100Z 1912/2012 25015G30KT 9999 SCT020 PROB30 TEMPO 1912/1914 4000 SHRAGS BKN020CB BECMG 1915/1918 22006KT =


SR/SS

06:22 / 16:47 UTC
(EDSO 19-02-2020)